sensor_id;sensor_type;location;lat;lon;timestamp;P1;durP1;ratioP1;P2;durP2;ratioP2
32786;SDS011;19139;49.372;8.580;2023-09-30T00:02:26;3.07;;;2.13;;
32786;SDS011;19139;49.372;8.580;2023-09-30T00:04:54;4.80;;;2.17;;
32786;SDS011;19139;49.372;8.580;2023-09-30T00:07:20;2.67;;;1.90;;
32786;SDS011;19139;49.372;8.580;2023-09-30T00:09:47;2.93;;;2.33;;
32786;SDS011;19139;49.372;8.580;2023-09-30T00:12:15;3.67;;;2.30;;
32786;SDS011;19139;49.372;8.580;2023-09-30T00:14:42;4.77;;;2.67;;
32786;SDS011;19139;49.372;8.580;2023-09-30T00:17:09;4.80;;;2.20;;
32786;SDS011;19139;49.372;8.580;2023-09-30T00:19:36;3.90;;;2.27;;
32786;SDS011;19139;49.372;8.580;2023-09-30T00:22:03;4.27;;;2.70;;
32786;SDS011;19139;49.372;8.580;2023-09-30T00:24:30;5.57;;;2.00;;
32786;SDS011;19139;49.372;8.580;2023-09-30T00:26:57;4.53;;;2.37;;
32786;SDS011;19139;49.372;8.580;2023-09-30T00:29:24;3.37;;;2.00;;
32786;SDS011;19139;49.372;8.580;2023-09-30T00:31:50;4.77;;;2.20;;
32786;SDS011;19139;49.372;8.580;2023-09-30T00:34:17;3.70;;;2.43;;
32786;SDS011;19139;49.372;8.580;2023-09-30T00:36:44;3.93;;;1.90;;
32786;SDS011;19139;49.372;8.580;2023-09-30T00:39:11;3.47;;;2.13;;
32786;SDS011;19139;49.372;8.580;2023-09-30T00:41:38;4.03;;;2.17;;
32786;SDS011;19139;49.372;8.580;2023-09-30T00:44:06;5.07;;;2.20;;
32786;SDS011;19139;49.372;8.580;2023-09-30T00:46:35;3.67;;;2.50;;
32786;SDS011;19139;49.372;8.580;2023-09-30T00:49:04;4.37;;;2.53;;
32786;SDS011;19139;49.372;8.580;2023-09-30T00:51:31;4.53;;;2.43;;
32786;SDS011;19139;49.372;8.580;2023-09-30T00:53:59;4.27;;;1.97;;
32786;SDS011;19139;49.372;8.580;2023-09-30T00:56:27;4.90;;;2.20;;
32786;SDS011;19139;49.372;8.580;2023-09-30T00:58:56;3.97;;;2.40;;
32786;SDS011;19139;49.372;8.580;2023-09-30T01:01:23;3.73;;;2.30;;
32786;SDS011;19139;49.372;8.580;2023-09-30T01:03:50;3.13;;;2.13;;
32786;SDS011;19139;49.372;8.580;2023-09-30T01:06:17;3.40;;;2.27;;
32786;SDS011;19139;49.372;8.580;2023-09-30T01:08:44;4.93;;;2.30;;
32786;SDS011;19139;49.372;8.580;2023-09-30T01:11:11;3.97;;;2.10;;
32786;SDS011;19139;49.372;8.580;2023-09-30T01:13:39;3.63;;;2.03;;
32786;SDS011;19139;49.372;8.580;2023-09-30T01:16:06;3.50;;;2.10;;
32786;SDS011;19139;49.372;8.580;2023-09-30T01:18:38;2.93;;;1.93;;
32786;SDS011;19139;49.372;8.580;2023-09-30T01:21:09;3.17;;;2.50;;
32786;SDS011;19139;49.372;8.580;2023-09-30T01:23:36;3.20;;;2.40;;
32786;SDS011;19139;49.372;8.580;2023-09-30T01:26:03;3.10;;;2.17;;
32786;SDS011;19139;49.372;8.580;2023-09-30T01:28:30;4.60;;;2.50;;
32786;SDS011;19139;49.372;8.580;2023-09-30T01:30:57;3.60;;;2.67;;
32786;SDS011;19139;49.372;8.580;2023-09-30T01:33:24;4.70;;;2.30;;
32786;SDS011;19139;49.372;8.580;2023-09-30T01:35:51;4.33;;;2.30;;
32786;SDS011;19139;49.372;8.580;2023-09-30T01:38:18;4.40;;;2.43;;
32786;SDS011;19139;49.372;8.580;2023-09-30T01:40:46;2.90;;;2.37;;
32786;SDS011;19139;49.372;8.580;2023-09-30T01:43:13;3.67;;;2.67;;
32786;SDS011;19139;49.372;8.580;2023-09-30T01:45:41;3.13;;;2.57;;
32786;SDS011;19139;49.372;8.580;2023-09-30T01:48:09;3.33;;;2.23;;
32786;SDS011;19139;49.372;8.580;2023-09-30T01:50:37;3.30;;;2.40;;
32786;SDS011;19139;49.372;8.580;2023-09-30T01:53:05;4.33;;;2.27;;
32786;SDS011;19139;49.372;8.580;2023-09-30T01:55:35;3.50;;;2.40;;
32786;SDS011;19139;49.372;8.580;2023-09-30T01:58:03;3.67;;;2.60;;
32786;SDS011;19139;49.372;8.580;2023-09-30T02:00:30;4.57;;;3.17;;
32786;SDS011;19139;49.372;8.580;2023-09-30T02:02:57;4.67;;;2.53;;
32786;SDS011;19139;49.372;8.580;2023-09-30T02:05:24;3.10;;;2.23;;
32786;SDS011;19139;49.372;8.580;2023-09-30T02:07:51;3.83;;;2.20;;
32786;SDS011;19139;49.372;8.580;2023-09-30T02:10:18;2.77;;;2.03;;
32786;SDS011;19139;49.372;8.580;2023-09-30T02:12:45;4.17;;;2.30;;
32786;SDS011;19139;49.372;8.580;2023-09-30T02:15:13;4.07;;;2.87;;
32786;SDS011;19139;49.372;8.580;2023-09-30T02:17:40;3.43;;;2.10;;
32786;SDS011;19139;49.372;8.580;2023-09-30T02:20:12;4.63;;;2.27;;
32786;SDS011;19139;49.372;8.580;2023-09-30T02:22:42;2.97;;;2.20;;
32786;SDS011;19139;49.372;8.580;2023-09-30T02:25:14;4.13;;;2.40;;
32786;SDS011;19139;49.372;8.580;2023-09-30T02:27:41;3.57;;;2.30;;
32786;SDS011;19139;49.372;8.580;2023-09-30T02:30:09;5.30;;;2.57;;
32786;SDS011;19139;49.372;8.580;2023-09-30T02:32:38;3.23;;;2.30;;
32786;SDS011;19139;49.372;8.580;2023-09-30T02:35:06;5.00;;;2.53;;
32786;SDS011;19139;49.372;8.580;2023-09-30T02:37:34;3.50;;;2.20;;
32786;SDS011;19139;49.372;8.580;2023-09-30T02:40:04;3.30;;;2.00;;
32786;SDS011;19139;49.372;8.580;2023-09-30T02:42:39;2.97;;;2.07;;
32786;SDS011;19139;49.372;8.580;2023-09-30T02:45:06;3.47;;;2.13;;
32786;SDS011;19139;49.372;8.580;2023-09-30T02:47:35;3.63;;;2.33;;
32786;SDS011;19139;49.372;8.580;2023-09-30T02:50:04;3.97;;;2.23;;
32786;SDS011;19139;49.372;8.580;2023-09-30T02:52:32;2.43;;;1.80;;
32786;SDS011;19139;49.372;8.580;2023-09-30T02:54:58;3.90;;;2.37;;
32786;SDS011;19139;49.372;8.580;2023-09-30T02:57:25;4.37;;;2.60;;
32786;SDS011;19139;49.372;8.580;2023-09-30T02:59:57;4.10;;;2.33;;
32786;SDS011;19139;49.372;8.580;2023-09-30T03:02:26;2.60;;;1.80;;
32786;SDS011;19139;49.372;8.580;2023-09-30T03:04:53;4.10;;;2.20;;
32786;SDS011;19139;49.372;8.580;2023-09-30T03:07:19;4.13;;;2.87;;
32786;SDS011;19139;49.372;8.580;2023-09-30T03:09:46;4.23;;;2.73;;
32786;SDS011;19139;49.372;8.580;2023-09-30T03:12:13;4.97;;;2.77;;
32786;SDS011;19139;49.372;8.580;2023-09-30T03:14:40;3.50;;;1.90;;
32786;SDS011;19139;49.372;8.580;2023-09-30T03:17:07;3.63;;;2.20;;
32786;SDS011;19139;49.372;8.580;2023-09-30T03:19:38;4.50;;;2.70;;
32786;SDS011;19139;49.372;8.580;2023-09-30T03:22:05;5.60;;;2.43;;
32786;SDS011;19139;49.372;8.580;2023-09-30T03:24:32;3.20;;;2.17;;
32786;SDS011;19139;49.372;8.580;2023-09-30T03:26:58;3.20;;;2.03;;
32786;SDS011;19139;49.372;8.580;2023-09-30T03:29:25;2.27;;;1.97;;
32786;SDS011;19139;49.372;8.580;2023-09-30T03:31:52;3.30;;;2.50;;
32786;SDS011;19139;49.372;8.580;2023-09-30T03:34:19;4.33;;;2.73;;
32786;SDS011;19139;49.372;8.580;2023-09-30T03:36:46;3.70;;;2.33;;
32786;SDS011;19139;49.372;8.580;2023-09-30T03:39:13;5.30;;;2.37;;
32786;SDS011;19139;49.372;8.580;2023-09-30T03:41:41;3.13;;;2.50;;
32786;SDS011;19139;49.372;8.580;2023-09-30T03:44:08;2.87;;;2.20;;
32786;SDS011;19139;49.372;8.580;2023-09-30T03:46:35;2.83;;;2.20;;
32786;SDS011;19139;49.372;8.580;2023-09-30T03:49:01;3.30;;;2.40;;
32786;SDS011;19139;49.372;8.580;2023-09-30T03:51:29;4.17;;;2.40;;
32786;SDS011;19139;49.372;8.580;2023-09-30T03:53:56;3.57;;;2.03;;
32786;SDS011;19139;49.372;8.580;2023-09-30T03:56:23;4.13;;;2.80;;
32786;SDS011;19139;49.372;8.580;2023-09-30T03:58:49;4.17;;;3.13;;
32786;SDS011;19139;49.372;8.580;2023-09-30T04:01:16;4.03;;;2.63;;
32786;SDS011;19139;49.372;8.580;2023-09-30T04:03:43;4.40;;;2.37;;
32786;SDS011;19139;49.372;8.580;2023-09-30T04:06:10;3.97;;;2.67;;
32786;SDS011;19139;49.372;8.580;2023-09-30T04:08:38;3.87;;;2.63;;
32786;SDS011;19139;49.372;8.580;2023-09-30T04:11:05;4.37;;;2.43;;
32786;SDS011;19139;49.372;8.580;2023-09-30T04:13:32;3.60;;;2.27;;
32786;SDS011;19139;49.372;8.580;2023-09-30T04:15:59;3.20;;;2.67;;
32786;SDS011;19139;49.372;8.580;2023-09-30T04:18:26;4.00;;;2.40;;
32786;SDS011;19139;49.372;8.580;2023-09-30T04:20:53;4.37;;;2.40;;
32786;SDS011;19139;49.372;8.580;2023-09-30T04:23:20;4.27;;;3.13;;
32786;SDS011;19139;49.372;8.580;2023-09-30T04:25:48;2.77;;;2.30;;
32786;SDS011;19139;49.372;8.580;2023-09-30T04:28:15;4.90;;;2.90;;
32786;SDS011;19139;49.372;8.580;2023-09-30T04:30:49;5.20;;;3.60;;
32786;SDS011;19139;49.372;8.580;2023-09-30T04:33:17;3.77;;;2.17;;
32786;SDS011;19139;49.372;8.580;2023-09-30T04:35:44;2.77;;;2.43;;
32786;SDS011;19139;49.372;8.580;2023-09-30T04:38:11;2.93;;;2.23;;
32786;SDS011;19139;49.372;8.580;2023-09-30T04:40:39;2.70;;;2.23;;
32786;SDS011;19139;49.372;8.580;2023-09-30T04:43:06;4.30;;;2.40;;
32786;SDS011;19139;49.372;8.580;2023-09-30T04:45:32;7.27;;;3.30;;
32786;SDS011;19139;49.372;8.580;2023-09-30T04:47:59;3.63;;;2.33;;
32786;SDS011;19139;49.372;8.580;2023-09-30T04:50:28;3.23;;;2.67;;
32786;SDS011;19139;49.372;8.580;2023-09-30T04:52:56;2.73;;;2.33;;
32786;SDS011;19139;49.372;8.580;2023-09-30T04:55:26;3.17;;;2.37;;
32786;SDS011;19139;49.372;8.580;2023-09-30T04:57:53;3.20;;;2.40;;
32786;SDS011;19139;49.372;8.580;2023-09-30T05:00:19;3.57;;;2.73;;
32786;SDS011;19139;49.372;8.580;2023-09-30T05:02:52;4.27;;;2.57;;
32786;SDS011;19139;49.372;8.580;2023-09-30T05:05:20;4.07;;;2.97;;
32786;SDS011;19139;49.372;8.580;2023-09-30T05:07:47;5.20;;;2.40;;
32786;SDS011;19139;49.372;8.580;2023-09-30T05:10:14;4.00;;;2.40;;
32786;SDS011;19139;49.372;8.580;2023-09-30T05:12:43;3.53;;;2.17;;
32786;SDS011;19139;49.372;8.580;2023-09-30T05:15:13;3.50;;;2.67;;
32786;SDS011;19139;49.372;8.580;2023-09-30T05:17:42;4.50;;;3.10;;
32786;SDS011;19139;49.372;8.580;2023-09-30T05:20:10;3.40;;;2.87;;
32786;SDS011;19139;49.372;8.580;2023-09-30T05:22:38;3.37;;;2.10;;
32786;SDS011;19139;49.372;8.580;2023-09-30T05:25:14;4.67;;;2.73;;
32786;SDS011;19139;49.372;8.580;2023-09-30T05:27:43;3.33;;;2.47;;
32786;SDS011;19139;49.372;8.580;2023-09-30T05:30:10;3.30;;;2.67;;
32786;SDS011;19139;49.372;8.580;2023-09-30T05:32:37;4.70;;;3.03;;
32786;SDS011;19139;49.372;8.580;2023-09-30T05:35:05;5.57;;;3.20;;
32786;SDS011;19139;49.372;8.580;2023-09-30T05:37:42;3.60;;;2.73;;
32786;SDS011;19139;49.372;8.580;2023-09-30T05:40:11;4.50;;;3.17;;
32786;SDS011;19139;49.372;8.580;2023-09-30T05:42:55;3.83;;;3.00;;
32786;SDS011;19139;49.372;8.580;2023-09-30T05:45:25;4.37;;;3.00;;
32786;SDS011;19139;49.372;8.580;2023-09-30T05:47:53;4.50;;;3.07;;
32786;SDS011;19139;49.372;8.580;2023-09-30T05:50:23;5.00;;;3.00;;
32786;SDS011;19139;49.372;8.580;2023-09-30T05:52:53;4.23;;;3.10;;
32786;SDS011;19139;49.372;8.580;2023-09-30T05:55:21;5.20;;;3.17;;
32786;SDS011;19139;49.372;8.580;2023-09-30T05:57:49;6.27;;;3.70;;
32786;SDS011;19139;49.372;8.580;2023-09-30T06:00:16;4.73;;;3.30;;
32786;SDS011;19139;49.372;8.580;2023-09-30T06:02:51;6.03;;;3.53;;
32786;SDS011;19139;49.372;8.580;2023-09-30T06:05:18;4.90;;;3.20;;
32786;SDS011;19139;49.372;8.580;2023-09-30T06:07:46;7.90;;;4.03;;
32786;SDS011;19139;49.372;8.580;2023-09-30T06:10:12;4.20;;;3.37;;
32786;SDS011;19139;49.372;8.580;2023-09-30T06:12:49;5.30;;;3.20;;
32786;SDS011;19139;49.372;8.580;2023-09-30T06:15:22;5.57;;;3.13;;
32786;SDS011;19139;49.372;8.580;2023-09-30T06:17:52;4.00;;;3.43;;
32786;SDS011;19139;49.372;8.580;2023-09-30T06:20:20;5.23;;;3.33;;
32786;SDS011;19139;49.372;8.580;2023-09-30T06:22:48;5.43;;;4.00;;
32786;SDS011;19139;49.372;8.580;2023-09-30T06:25:16;4.57;;;3.50;;
32786;SDS011;19139;49.372;8.580;2023-09-30T06:27:46;5.80;;;3.97;;
32786;SDS011;19139;49.372;8.580;2023-09-30T06:30:14;5.87;;;4.17;;
32786;SDS011;19139;49.372;8.580;2023-09-30T06:32:45;6.47;;;4.57;;
32786;SDS011;19139;49.372;8.580;2023-09-30T06:35:12;5.63;;;3.47;;
32786;SDS011;19139;49.372;8.580;2023-09-30T06:37:39;7.07;;;3.80;;
32786;SDS011;19139;49.372;8.580;2023-09-30T06:40:07;6.63;;;3.47;;
32786;SDS011;19139;49.372;8.580;2023-09-30T06:42:35;5.70;;;3.57;;
32786;SDS011;19139;49.372;8.580;2023-09-30T06:45:03;5.93;;;3.73;;
32786;SDS011;19139;49.372;8.580;2023-09-30T06:47:32;6.50;;;3.87;;
32786;SDS011;19139;49.372;8.580;2023-09-30T06:50:03;6.87;;;3.73;;
32786;SDS011;19139;49.372;8.580;2023-09-30T06:52:34;5.33;;;4.07;;
32786;SDS011;19139;49.372;8.580;2023-09-30T06:55:02;6.67;;;4.33;;
32786;SDS011;19139;49.372;8.580;2023-09-30T06:57:34;6.50;;;3.77;;
32786;SDS011;19139;49.372;8.580;2023-09-30T07:00:05;5.63;;;3.60;;
32786;SDS011;19139;49.372;8.580;2023-09-30T07:02:38;4.90;;;3.50;;
32786;SDS011;19139;49.372;8.580;2023-09-30T07:05:08;4.90;;;3.73;;
32786;SDS011;19139;49.372;8.580;2023-09-30T07:07:39;6.13;;;4.37;;
32786;SDS011;19139;49.372;8.580;2023-09-30T07:10:08;5.40;;;4.47;;
32786;SDS011;19139;49.372;8.580;2023-09-30T07:12:35;4.93;;;3.70;;
32786;SDS011;19139;49.372;8.580;2023-09-30T07:15:03;7.47;;;4.37;;
32786;SDS011;19139;49.372;8.580;2023-09-30T07:17:31;4.60;;;4.10;;
32786;SDS011;19139;49.372;8.580;2023-09-30T07:19:59;5.83;;;4.00;;
32786;SDS011;19139;49.372;8.580;2023-09-30T07:22:26;5.33;;;3.83;;
32786;SDS011;19139;49.372;8.580;2023-09-30T07:25:12;6.57;;;4.10;;
32786;SDS011;19139;49.372;8.580;2023-09-30T07:27:45;7.10;;;3.47;;
32786;SDS011;19139;49.372;8.580;2023-09-30T07:30:12;5.47;;;4.27;;
32786;SDS011;19139;49.372;8.580;2023-09-30T07:32:42;7.00;;;4.30;;
32786;SDS011;19139;49.372;8.580;2023-09-30T07:35:09;8.20;;;4.03;;
32786;SDS011;19139;49.372;8.580;2023-09-30T07:37:36;7.00;;;3.80;;
32786;SDS011;19139;49.372;8.580;2023-09-30T07:40:03;7.10;;;3.43;;
32786;SDS011;19139;49.372;8.580;2023-09-30T07:42:31;7.40;;;3.97;;
32786;SDS011;19139;49.372;8.580;2023-09-30T07:44:59;5.67;;;4.17;;
32786;SDS011;19139;49.372;8.580;2023-09-30T07:47:26;7.10;;;3.70;;
32786;SDS011;19139;49.372;8.580;2023-09-30T07:49:53;7.17;;;3.97;;
32786;SDS011;19139;49.372;8.580;2023-09-30T07:52:21;6.37;;;3.73;;
32786;SDS011;19139;49.372;8.580;2023-09-30T07:54:48;6.60;;;3.60;;
32786;SDS011;19139;49.372;8.580;2023-09-30T07:57:15;7.70;;;3.97;;
32786;SDS011;19139;49.372;8.580;2023-09-30T07:59:42;7.73;;;4.03;;
32786;SDS011;19139;49.372;8.580;2023-09-30T08:02:09;7.20;;;4.60;;
32786;SDS011;19139;49.372;8.580;2023-09-30T08:04:36;6.67;;;3.87;;
32786;SDS011;19139;49.372;8.580;2023-09-30T08:07:02;9.40;;;4.37;;
32786;SDS011;19139;49.372;8.580;2023-09-30T08:09:29;7.17;;;4.00;;
32786;SDS011;19139;49.372;8.580;2023-09-30T08:11:58;8.40;;;3.77;;
32786;SDS011;19139;49.372;8.580;2023-09-30T08:14:25;6.80;;;3.83;;
32786;SDS011;19139;49.372;8.580;2023-09-30T08:16:52;6.47;;;4.13;;
32786;SDS011;19139;49.372;8.580;2023-09-30T08:19:18;7.90;;;3.47;;
32786;SDS011;19139;49.372;8.580;2023-09-30T08:21:46;7.77;;;4.03;;
32786;SDS011;19139;49.372;8.580;2023-09-30T08:24:13;6.83;;;3.90;;
32786;SDS011;19139;49.372;8.580;2023-09-30T08:26:40;7.23;;;3.63;;
32786;SDS011;19139;49.372;8.580;2023-09-30T08:29:07;8.17;;;4.03;;
32786;SDS011;19139;49.372;8.580;2023-09-30T08:31:33;9.97;;;4.33;;
32786;SDS011;19139;49.372;8.580;2023-09-30T08:34:00;7.80;;;4.53;;
32786;SDS011;19139;49.372;8.580;2023-09-30T08:36:30;6.63;;;3.67;;
32786;SDS011;19139;49.372;8.580;2023-09-30T08:38:57;8.80;;;3.70;;
32786;SDS011;19139;49.372;8.580;2023-09-30T08:41:32;7.07;;;3.27;;
32786;SDS011;19139;49.372;8.580;2023-09-30T08:43:59;6.90;;;3.67;;
32786;SDS011;19139;49.372;8.580;2023-09-30T08:46:30;6.00;;;3.37;;
32786;SDS011;19139;49.372;8.580;2023-09-30T08:48:59;6.90;;;3.57;;
32786;SDS011;19139;49.372;8.580;2023-09-30T08:51:30;8.17;;;3.80;;
32786;SDS011;19139;49.372;8.580;2023-09-30T08:53:58;9.93;;;3.43;;
32786;SDS011;19139;49.372;8.580;2023-09-30T08:56:29;6.77;;;3.60;;
32786;SDS011;19139;49.372;8.580;2023-09-30T08:58:59;5.37;;;2.73;;
32786;SDS011;19139;49.372;8.580;2023-09-30T09:01:27;7.00;;;3.80;;
32786;SDS011;19139;49.372;8.580;2023-09-30T09:03:55;8.67;;;3.87;;
32786;SDS011;19139;49.372;8.580;2023-09-30T09:06:23;8.00;;;3.37;;
32786;SDS011;19139;49.372;8.580;2023-09-30T09:08:51;8.90;;;3.37;;
32786;SDS011;19139;49.372;8.580;2023-09-30T09:11:18;7.53;;;3.23;;
32786;SDS011;19139;49.372;8.580;2023-09-30T09:13:48;6.83;;;2.83;;
32786;SDS011;19139;49.372;8.580;2023-09-30T09:16:17;12.20;;;4.23;;
32786;SDS011;19139;49.372;8.580;2023-09-30T09:18:45;6.90;;;3.23;;
32786;SDS011;19139;49.372;8.580;2023-09-30T09:21:17;9.70;;;3.70;;
32786;SDS011;19139;49.372;8.580;2023-09-30T09:23:47;5.87;;;3.00;;
32786;SDS011;19139;49.372;8.580;2023-09-30T09:26:26;6.57;;;3.70;;
32786;SDS011;19139;49.372;8.580;2023-09-30T09:29:00;10.90;;;4.53;;
32786;SDS011;19139;49.372;8.580;2023-09-30T09:31:31;6.63;;;3.80;;
32786;SDS011;19139;49.372;8.580;2023-09-30T09:34:02;9.83;;;4.43;;
32786;SDS011;19139;49.372;8.580;2023-09-30T09:36:40;8.63;;;4.50;;
32786;SDS011;19139;49.372;8.580;2023-09-30T09:39:09;11.40;;;4.90;;
32786;SDS011;19139;49.372;8.580;2023-09-30T09:41:51;9.90;;;4.33;;
32786;SDS011;19139;49.372;8.580;2023-09-30T09:44:20;7.73;;;3.83;;
32786;SDS011;19139;49.372;8.580;2023-09-30T09:46:48;5.87;;;3.90;;
32786;SDS011;19139;49.372;8.580;2023-09-30T09:49:17;9.53;;;4.53;;
32786;SDS011;19139;49.372;8.580;2023-09-30T09:51:45;8.47;;;4.40;;
32786;SDS011;19139;49.372;8.580;2023-09-30T09:54:14;10.93;;;3.73;;
32786;SDS011;19139;49.372;8.580;2023-09-30T09:56:42;8.47;;;3.97;;
32786;SDS011;19139;49.372;8.580;2023-09-30T09:59:11;8.93;;;4.23;;
32786;SDS011;19139;49.372;8.580;2023-09-30T10:01:42;8.57;;;4.47;;
32786;SDS011;19139;49.372;8.580;2023-09-30T10:04:12;9.70;;;3.90;;
32786;SDS011;19139;49.372;8.580;2023-09-30T10:06:42;7.67;;;3.40;;
32786;SDS011;19139;49.372;8.580;2023-09-30T10:09:14;6.53;;;3.90;;
32786;SDS011;19139;49.372;8.580;2023-09-30T10:11:43;8.97;;;4.10;;
32786;SDS011;19139;49.372;8.580;2023-09-30T10:14:11;7.23;;;4.03;;
32786;SDS011;19139;49.372;8.580;2023-09-30T10:16:58;7.40;;;4.13;;
32786;SDS011;19139;49.372;8.580;2023-09-30T10:19:25;10.27;;;4.17;;
32786;SDS011;19139;49.372;8.580;2023-09-30T10:24:42;8.63;;;3.90;;
32786;SDS011;19139;49.372;8.580;2023-09-30T10:29:54;7.73;;;4.03;;
32786;SDS011;19139;49.372;8.580;2023-09-30T10:35:20;10.40;;;4.60;;
32786;SDS011;19139;49.372;8.580;2023-09-30T10:37:47;7.33;;;3.83;;
32786;SDS011;19139;49.372;8.580;2023-09-30T10:40:30;7.40;;;3.80;;
32786;SDS011;19139;49.372;8.580;2023-09-30T10:43:00;9.17;;;3.47;;
32786;SDS011;19139;49.372;8.580;2023-09-30T10:48:54;10.20;;;3.73;;
32786;SDS011;19139;49.372;8.580;2023-09-30T10:50:58;7.77;;;4.00;;
32786;SDS011;19139;49.372;8.580;2023-09-30T10:53:26;9.27;;;4.53;;
32786;SDS011;19139;49.372;8.580;2023-09-30T10:55:55;6.23;;;4.07;;
32786;SDS011;19139;49.372;8.580;2023-09-30T11:01:31;6.30;;;3.47;;
32786;SDS011;19139;49.372;8.580;2023-09-30T11:04:01;9.70;;;5.13;;
32786;SDS011;19139;49.372;8.580;2023-09-30T11:06:30;11.73;;;5.00;;
32786;SDS011;19139;49.372;8.580;2023-09-30T11:08:58;9.13;;;4.90;;
32786;SDS011;19139;49.372;8.580;2023-09-30T11:11:39;9.83;;;4.97;;
32786;SDS011;19139;49.372;8.580;2023-09-30T11:14:24;7.10;;;4.60;;
32786;SDS011;19139;49.372;8.580;2023-09-30T11:16:58;8.30;;;5.30;;
32786;SDS011;19139;49.372;8.580;2023-09-30T11:19:27;11.37;;;5.17;;
32786;SDS011;19139;49.372;8.580;2023-09-30T11:22:13;8.80;;;4.93;;
32786;SDS011;19139;49.372;8.580;2023-09-30T11:24:41;9.17;;;4.87;;
32786;SDS011;19139;49.372;8.580;2023-09-30T11:27:08;8.33;;;5.43;;
32786;SDS011;19139;49.372;8.580;2023-09-30T11:29:35;10.77;;;5.20;;
32786;SDS011;19139;49.372;8.580;2023-09-30T11:32:02;10.60;;;5.50;;
32786;SDS011;19139;49.372;8.580;2023-09-30T11:34:36;11.37;;;5.80;;
32786;SDS011;19139;49.372;8.580;2023-09-30T11:37:03;10.80;;;6.20;;
32786;SDS011;19139;49.372;8.580;2023-09-30T11:39:32;10.53;;;5.97;;
32786;SDS011;19139;49.372;8.580;2023-09-30T11:41:59;13.27;;;6.60;;
32786;SDS011;19139;49.372;8.580;2023-09-30T11:44:27;11.07;;;5.27;;
32786;SDS011;19139;49.372;8.580;2023-09-30T11:46:57;12.77;;;6.37;;
32786;SDS011;19139;49.372;8.580;2023-09-30T11:52:06;14.03;;;5.13;;
32786;SDS011;19139;49.372;8.580;2023-09-30T11:54:35;10.13;;;5.63;;
32786;SDS011;19139;49.372;8.580;2023-09-30T11:57:05;11.83;;;6.37;;
32786;SDS011;19139;49.372;8.580;2023-09-30T11:59:36;11.20;;;5.40;;
32786;SDS011;19139;49.372;8.580;2023-09-30T12:02:04;11.93;;;5.53;;
32786;SDS011;19139;49.372;8.580;2023-09-30T12:04:40;13.77;;;5.83;;
32786;SDS011;19139;49.372;8.580;2023-09-30T12:07:09;8.53;;;5.77;;
32786;SDS011;19139;49.372;8.580;2023-09-30T12:09:37;8.03;;;5.73;;
32786;SDS011;19139;49.372;8.580;2023-09-30T12:12:05;10.50;;;6.07;;
32786;SDS011;19139;49.372;8.580;2023-09-30T12:14:36;7.40;;;5.33;;
32786;SDS011;19139;49.372;8.580;2023-09-30T12:17:03;9.40;;;5.37;;
32786;SDS011;19139;49.372;8.580;2023-09-30T12:19:30;8.30;;;5.37;;
32786;SDS011;19139;49.372;8.580;2023-09-30T12:21:57;8.60;;;5.43;;
32786;SDS011;19139;49.372;8.580;2023-09-30T12:24:24;8.00;;;5.63;;
32786;SDS011;19139;49.372;8.580;2023-09-30T12:26:53;11.13;;;5.87;;
32786;SDS011;19139;49.372;8.580;2023-09-30T12:29:21;10.03;;;5.90;;
32786;SDS011;19139;49.372;8.580;2023-09-30T12:31:51;9.10;;;5.67;;
32786;SDS011;19139;49.372;8.580;2023-09-30T12:34:20;11.47;;;5.23;;
32786;SDS011;19139;49.372;8.580;2023-09-30T12:36:52;10.17;;;5.23;;
32786;SDS011;19139;49.372;8.580;2023-09-30T12:39:20;8.13;;;5.50;;
32786;SDS011;19139;49.372;8.580;2023-09-30T12:41:51;13.07;;;5.90;;
32786;SDS011;19139;49.372;8.580;2023-09-30T12:44:18;7.83;;;6.33;;
32786;SDS011;19139;49.372;8.580;2023-09-30T12:46:45;9.20;;;5.50;;
32786;SDS011;19139;49.372;8.580;2023-09-30T12:49:12;9.93;;;6.03;;
32786;SDS011;19139;49.372;8.580;2023-09-30T12:51:40;10.10;;;5.43;;
32786;SDS011;19139;49.372;8.580;2023-09-30T12:54:07;9.13;;;5.20;;
32786;SDS011;19139;49.372;8.580;2023-09-30T12:56:34;8.43;;;5.60;;
32786;SDS011;19139;49.372;8.580;2023-09-30T12:59:01;8.70;;;5.93;;
32786;SDS011;19139;49.372;8.580;2023-09-30T13:01:28;9.20;;;5.43;;
32786;SDS011;19139;49.372;8.580;2023-09-30T13:03:58;7.60;;;5.37;;
32786;SDS011;19139;49.372;8.580;2023-09-30T13:06:25;7.63;;;4.80;;
32786;SDS011;19139;49.372;8.580;2023-09-30T13:08:51;8.97;;;4.93;;
32786;SDS011;19139;49.372;8.580;2023-09-30T13:11:18;9.87;;;5.90;;
32786;SDS011;19139;49.372;8.580;2023-09-30T13:13:45;7.97;;;5.20;;
32786;SDS011;19139;49.372;8.580;2023-09-30T13:16:12;8.03;;;5.43;;
32786;SDS011;19139;49.372;8.580;2023-09-30T13:18:39;8.63;;;5.50;;
32786;SDS011;19139;49.372;8.580;2023-09-30T13:21:05;11.13;;;5.90;;
32786;SDS011;19139;49.372;8.580;2023-09-30T13:23:33;9.50;;;5.43;;
32786;SDS011;19139;49.372;8.580;2023-09-30T13:26:00;7.33;;;5.40;;
32786;SDS011;19139;49.372;8.580;2023-09-30T13:28:30;9.13;;;5.57;;
32786;SDS011;19139;49.372;8.580;2023-09-30T13:30:56;8.97;;;5.80;;
32786;SDS011;19139;49.372;8.580;2023-09-30T13:33:23;9.50;;;5.97;;
32786;SDS011;19139;49.372;8.580;2023-09-30T13:35:50;9.70;;;5.67;;
32786;SDS011;19139;49.372;8.580;2023-09-30T13:38:17;8.37;;;5.53;;
32786;SDS011;19139;49.372;8.580;2023-09-30T13:40:44;10.90;;;6.47;;
32786;SDS011;19139;49.372;8.580;2023-09-30T13:43:12;10.87;;;5.20;;
32786;SDS011;19139;49.372;8.580;2023-09-30T13:45:39;9.90;;;6.23;;
32786;SDS011;19139;49.372;8.580;2023-09-30T13:48:06;8.07;;;5.20;;
32786;SDS011;19139;49.372;8.580;2023-09-30T13:50:34;9.53;;;5.83;;
32786;SDS011;19139;49.372;8.580;2023-09-30T13:53:00;11.97;;;6.60;;
32786;SDS011;19139;49.372;8.580;2023-09-30T13:55:28;10.27;;;6.30;;
32786;SDS011;19139;49.372;8.580;2023-09-30T13:57:55;10.63;;;5.77;;
32786;SDS011;19139;49.372;8.580;2023-09-30T14:00:22;10.80;;;6.43;;
32786;SDS011;19139;49.372;8.580;2023-09-30T14:02:49;8.03;;;5.63;;
32786;SDS011;19139;49.372;8.580;2023-09-30T14:05:17;10.20;;;6.03;;
32786;SDS011;19139;49.372;8.580;2023-09-30T14:07:46;10.57;;;6.03;;
32786;SDS011;19139;49.372;8.580;2023-09-30T14:10:14;9.13;;;5.90;;
32786;SDS011;19139;49.372;8.580;2023-09-30T14:12:41;8.93;;;5.80;;
32786;SDS011;19139;49.372;8.580;2023-09-30T14:15:08;8.60;;;5.67;;
32786;SDS011;19139;49.372;8.580;2023-09-30T14:17:36;11.90;;;6.67;;
32786;SDS011;19139;49.372;8.580;2023-09-30T14:20:03;8.37;;;5.47;;
32786;SDS011;19139;49.372;8.580;2023-09-30T14:22:32;7.87;;;5.37;;
32786;SDS011;19139;49.372;8.580;2023-09-30T14:24:59;8.10;;;5.70;;
32786;SDS011;19139;49.372;8.580;2023-09-30T14:27:26;9.10;;;5.80;;
32786;SDS011;19139;49.372;8.580;2023-09-30T14:29:53;10.13;;;5.90;;
32786;SDS011;19139;49.372;8.580;2023-09-30T14:32:19;8.93;;;5.97;;
32786;SDS011;19139;49.372;8.580;2023-09-30T14:34:46;7.63;;;5.70;;
32786;SDS011;19139;49.372;8.580;2023-09-30T14:37:13;7.77;;;4.83;;
32786;SDS011;19139;49.372;8.580;2023-09-30T14:39:40;7.97;;;5.93;;
32786;SDS011;19139;49.372;8.580;2023-09-30T14:42:07;7.77;;;4.93;;
32786;SDS011;19139;49.372;8.580;2023-09-30T14:44:34;9.03;;;5.67;;
32786;SDS011;19139;49.372;8.580;2023-09-30T14:47:01;8.77;;;5.93;;
32786;SDS011;19139;49.372;8.580;2023-09-30T14:49:27;8.77;;;5.20;;
32786;SDS011;19139;49.372;8.580;2023-09-30T14:51:56;7.10;;;5.00;;
32786;SDS011;19139;49.372;8.580;2023-09-30T14:54:23;7.50;;;5.07;;
32786;SDS011;19139;49.372;8.580;2023-09-30T14:56:50;9.00;;;5.27;;
32786;SDS011;19139;49.372;8.580;2023-09-30T14:59:16;7.67;;;4.90;;
32786;SDS011;19139;49.372;8.580;2023-09-30T15:01:43;9.77;;;5.40;;
32786;SDS011;19139;49.372;8.580;2023-09-30T15:04:10;8.67;;;5.00;;
32786;SDS011;19139;49.372;8.580;2023-09-30T15:06:37;7.87;;;4.90;;
32786;SDS011;19139;49.372;8.580;2023-09-30T15:09:04;8.00;;;5.33;;
32786;SDS011;19139;49.372;8.580;2023-09-30T15:11:31;8.67;;;5.17;;